sensor_id;sensor_type;location;lat;lon;timestamp;P1;durP1;ratioP1;P2;durP2;ratioP2
56503;SDS011;48812;51.606;-0.114;2023-05-21T17:26:55;96.53;;;25.15;;
56503;SDS011;48812;51.606;-0.114;2023-05-21T17:29:28;92.10;;;22.92;;
56503;SDS011;48812;51.606;-0.114;2023-05-21T17:32:01;95.53;;;22.90;;
56503;SDS011;48812;51.606;-0.114;2023-05-21T17:34:34;113.05;;;21.83;;
56503;SDS011;48812;51.606;-0.114;2023-05-21T17:37:08;93.22;;;19.42;;
56503;SDS011;48812;51.606;-0.114;2023-05-21T17:39:40;81.47;;;19.48;;
56503;SDS011;48812;51.606;-0.114;2023-05-21T17:42:13;81.07;;;19.30;;
56503;SDS011;48812;51.606;-0.114;2023-05-21T17:44:45;68.25;;;18.25;;
56503;SDS011;48812;51.606;-0.114;2023-05-21T17:47:18;71.88;;;17.75;;
56503;SDS011;48812;51.606;-0.114;2023-05-21T17:49:52;66.30;;;16.73;;
56503;SDS011;48812;51.606;-0.114;2023-05-21T17:52:24;48.07;;;15.23;;
56503;SDS011;48812;51.606;-0.114;2023-05-21T17:54:57;72.32;;;14.55;;
56503;SDS011;48812;51.606;-0.114;2023-05-21T17:57:30;59.10;;;14.33;;
56503;SDS011;48812;51.606;-0.114;2023-05-21T18:00:03;56.40;;;14.35;;
56503;SDS011;48812;51.606;-0.114;2023-05-21T18:02:42;72.18;;;13.57;;
56503;SDS011;48812;51.606;-0.114;2023-05-21T18:05:15;59.58;;;12.38;;
56503;SDS011;48812;51.606;-0.114;2023-05-21T18:07:50;55.53;;;11.25;;
56503;SDS011;48812;51.606;-0.114;2023-05-21T18:10:23;51.22;;;11.77;;
56503;SDS011;48812;51.606;-0.114;2023-05-21T18:12:56;38.72;;;10.68;;
56503;SDS011;48812;51.606;-0.114;2023-05-21T18:15:29;43.35;;;10.27;;
56503;SDS011;48812;51.606;-0.114;2023-05-21T18:18:02;51.05;;;10.10;;
56503;SDS011;48812;51.606;-0.114;2023-05-21T18:20:34;53.10;;;10.80;;
56503;SDS011;48812;51.606;-0.114;2023-05-21T18:25:42;28.52;;;8.23;;
56503;SDS011;48812;51.606;-0.114;2023-05-21T18:28:14;31.10;;;8.73;;
56503;SDS011;48812;51.606;-0.114;2023-05-21T18:30:47;38.10;;;8.82;;
56503;SDS011;48812;51.606;-0.114;2023-05-21T18:33:19;30.23;;;7.47;;
56503;SDS011;48812;51.606;-0.114;2023-05-21T18:35:52;38.15;;;8.20;;
56503;SDS011;48812;51.606;-0.114;2023-05-21T18:38:25;43.05;;;7.78;;
56503;SDS011;48812;51.606;-0.114;2023-05-21T18:40:57;38.03;;;7.70;;
56503;SDS011;48812;51.606;-0.114;2023-05-21T18:43:31;28.63;;;7.13;;
56503;SDS011;48812;51.606;-0.114;2023-05-21T18:46:03;25.50;;;7.03;;
56503;SDS011;48812;51.606;-0.114;2023-05-21T18:48:35;31.98;;;7.53;;
56503;SDS011;48812;51.606;-0.114;2023-05-21T18:51:08;37.08;;;7.07;;
56503;SDS011;48812;51.606;-0.114;2023-05-21T18:53:40;43.95;;;7.70;;
56503;SDS011;48812;51.606;-0.114;2023-05-21T18:56:13;38.38;;;7.50;;
56503;SDS011;48812;51.606;-0.114;2023-05-21T18:58:46;27.58;;;6.90;;
56503;SDS011;48812;51.606;-0.114;2023-05-21T19:01:19;38.60;;;6.60;;
56503;SDS011;48812;51.606;-0.114;2023-05-21T19:03:52;34.67;;;6.72;;
56503;SDS011;48812;51.606;-0.114;2023-05-21T19:06:24;30.52;;;7.30;;
56503;SDS011;48812;51.606;-0.114;2023-05-21T19:08:58;34.90;;;7.03;;
56503;SDS011;48812;51.606;-0.114;2023-05-21T19:11:32;33.42;;;6.97;;
56503;SDS011;48812;51.606;-0.114;2023-05-21T19:14:05;29.55;;;6.38;;
56503;SDS011;48812;51.606;-0.114;2023-05-21T19:16:37;21.42;;;5.95;;
56503;SDS011;48812;51.606;-0.114;2023-05-21T19:19:10;29.92;;;5.82;;
56503;SDS011;48812;51.606;-0.114;2023-05-21T19:21:42;27.83;;;6.07;;
56503;SDS011;48812;51.606;-0.114;2023-05-21T19:24:15;21.42;;;5.95;;
56503;SDS011;48812;51.606;-0.114;2023-05-21T19:26:47;21.48;;;5.55;;
56503;SDS011;48812;51.606;-0.114;2023-05-21T19:29:20;27.33;;;6.30;;
56503;SDS011;48812;51.606;-0.114;2023-05-21T19:31:52;20.65;;;6.03;;
56503;SDS011;48812;51.606;-0.114;2023-05-21T19:34:27;23.88;;;5.80;;
56503;SDS011;48812;51.606;-0.114;2023-05-21T19:37:00;34.55;;;6.38;;
56503;SDS011;48812;51.606;-0.114;2023-05-21T19:42:12;26.52;;;4.90;;
56503;SDS011;48812;51.606;-0.114;2023-05-21T19:44:44;19.17;;;5.47;;
56503;SDS011;48812;51.606;-0.114;2023-05-21T19:47:17;25.27;;;5.47;;
56503;SDS011;48812;51.606;-0.114;2023-05-21T19:49:53;22.20;;;4.60;;
56503;SDS011;48812;51.606;-0.114;2023-05-21T19:52:27;20.10;;;4.35;;
56503;SDS011;48812;51.606;-0.114;2023-05-21T19:55:01;20.92;;;4.78;;
56503;SDS011;48812;51.606;-0.114;2023-05-21T19:57:37;17.65;;;4.28;;
56503;SDS011;48812;51.606;-0.114;2023-05-21T20:00:13;16.95;;;4.00;;
56503;SDS011;48812;51.606;-0.114;2023-05-21T20:02:48;15.25;;;4.30;;
56503;SDS011;48812;51.606;-0.114;2023-05-21T20:05:21;17.17;;;4.55;;
56503;SDS011;48812;51.606;-0.114;2023-05-21T20:07:53;17.23;;;3.87;;
56503;SDS011;48812;51.606;-0.114;2023-05-21T20:10:26;16.42;;;4.10;;
56503;SDS011;48812;51.606;-0.114;2023-05-21T20:12:59;12.17;;;3.67;;
56503;SDS011;48812;51.606;-0.114;2023-05-21T20:15:32;14.73;;;4.18;;
56503;SDS011;48812;51.606;-0.114;2023-05-21T20:18:05;18.55;;;3.70;;
56503;SDS011;48812;51.606;-0.114;2023-05-21T20:20:37;9.73;;;3.63;;
56503;SDS011;48812;51.606;-0.114;2023-05-21T20:23:12;16.20;;;3.58;;
56503;SDS011;48812;51.606;-0.114;2023-05-21T20:25:44;14.57;;;3.25;;
56503;SDS011;48812;51.606;-0.114;2023-05-21T20:28:18;7.28;;;3.53;;
56503;SDS011;48812;51.606;-0.114;2023-05-21T20:30:54;13.63;;;3.53;;
56503;SDS011;48812;51.606;-0.114;2023-05-21T20:33:30;12.75;;;3.25;;
56503;SDS011;48812;51.606;-0.114;2023-05-21T20:36:04;15.02;;;3.50;;
56503;SDS011;48812;51.606;-0.114;2023-05-21T20:38:36;17.20;;;3.55;;
56503;SDS011;48812;51.606;-0.114;2023-05-21T20:41:09;13.43;;;3.08;;
56503;SDS011;48812;51.606;-0.114;2023-05-21T20:43:42;26.42;;;4.13;;
56503;SDS011;48812;51.606;-0.114;2023-05-21T20:46:16;12.45;;;3.05;;
56503;SDS011;48812;51.606;-0.114;2023-05-21T20:48:49;17.83;;;3.30;;
56503;SDS011;48812;51.606;-0.114;2023-05-21T20:51:22;18.85;;;3.03;;
56503;SDS011;48812;51.606;-0.114;2023-05-21T20:53:55;11.30;;;3.20;;
56503;SDS011;48812;51.606;-0.114;2023-05-21T20:56:28;7.15;;;2.80;;
56503;SDS011;48812;51.606;-0.114;2023-05-21T20:59:13;13.80;;;3.03;;
56503;SDS011;48812;51.606;-0.114;2023-05-21T21:01:47;9.50;;;2.70;;
56503;SDS011;48812;51.606;-0.114;2023-05-21T21:04:21;11.43;;;3.25;;
56503;SDS011;48812;51.606;-0.114;2023-05-21T21:06:55;13.48;;;2.78;;
56503;SDS011;48812;51.606;-0.114;2023-05-21T21:09:29;9.30;;;2.80;;
56503;SDS011;48812;51.606;-0.114;2023-05-21T21:12:02;11.70;;;2.88;;
56503;SDS011;48812;51.606;-0.114;2023-05-21T21:14:56;8.75;;;2.80;;
56503;SDS011;48812;51.606;-0.114;2023-05-21T21:17:28;12.48;;;3.28;;
56503;SDS011;48812;51.606;-0.114;2023-05-21T21:20:01;9.50;;;3.20;;
56503;SDS011;48812;51.606;-0.114;2023-05-21T21:22:37;11.10;;;3.08;;
56503;SDS011;48812;51.606;-0.114;2023-05-21T21:25:09;7.65;;;3.00;;
56503;SDS011;48812;51.606;-0.114;2023-05-21T21:27:42;8.63;;;2.63;;
56503;SDS011;48812;51.606;-0.114;2023-05-21T21:30:15;12.18;;;2.95;;
56503;SDS011;48812;51.606;-0.114;2023-05-21T21:32:47;4.45;;;2.55;;
56503;SDS011;48812;51.606;-0.114;2023-05-21T21:37:53;5.03;;;2.10;;
56503;SDS011;48812;51.606;-0.114;2023-05-21T21:40:25;9.13;;;2.83;;
56503;SDS011;48812;51.606;-0.114;2023-05-21T21:42:58;5.63;;;3.03;;
56503;SDS011;48812;51.606;-0.114;2023-05-21T21:45:31;6.80;;;2.58;;
56503;SDS011;48812;51.606;-0.114;2023-05-21T21:48:03;6.65;;;2.83;;
56503;SDS011;48812;51.606;-0.114;2023-05-21T21:50:36;5.28;;;2.40;;
56503;SDS011;48812;51.606;-0.114;2023-05-21T21:53:09;10.55;;;3.10;;
56503;SDS011;48812;51.606;-0.114;2023-05-21T21:55:43;3.72;;;2.22;;
56503;SDS011;48812;51.606;-0.114;2023-05-21T21:58:15;7.47;;;2.33;;
56503;SDS011;48812;51.606;-0.114;2023-05-21T22:00:48;5.22;;;2.25;;
56503;SDS011;48812;51.606;-0.114;2023-05-21T22:03:21;4.38;;;2.78;;
56503;SDS011;48812;51.606;-0.114;2023-05-21T22:05:55;6.75;;;2.92;;
56503;SDS011;48812;51.606;-0.114;2023-05-21T22:08:28;8.50;;;2.70;;
56503;SDS011;48812;51.606;-0.114;2023-05-21T22:11:03;8.60;;;2.78;;
56503;SDS011;48812;51.606;-0.114;2023-05-21T22:13:35;5.65;;;2.70;;
56503;SDS011;48812;51.606;-0.114;2023-05-21T22:16:09;4.15;;;2.40;;
56503;SDS011;48812;51.606;-0.114;2023-05-21T22:18:42;11.90;;;2.95;;
56503;SDS011;48812;51.606;-0.114;2023-05-21T22:21:16;7.85;;;2.80;;
56503;SDS011;48812;51.606;-0.114;2023-05-21T22:23:49;4.75;;;2.25;;
56503;SDS011;48812;51.606;-0.114;2023-05-21T22:26:22;4.88;;;2.45;;
56503;SDS011;48812;51.606;-0.114;2023-05-21T22:28:56;3.92;;;2.38;;
56503;SDS011;48812;51.606;-0.114;2023-05-21T22:31:30;3.80;;;2.58;;
56503;SDS011;48812;51.606;-0.114;2023-05-21T22:34:03;8.32;;;3.00;;
56503;SDS011;48812;51.606;-0.114;2023-05-21T22:36:35;6.90;;;3.30;;
56503;SDS011;48812;51.606;-0.114;2023-05-21T22:39:09;5.13;;;2.47;;
56503;SDS011;48812;51.606;-0.114;2023-05-21T22:41:45;4.20;;;2.42;;
56503;SDS011;48812;51.606;-0.114;2023-05-21T22:44:18;3.08;;;2.20;;
56503;SDS011;48812;51.606;-0.114;2023-05-21T22:46:51;4.60;;;2.20;;
56503;SDS011;48812;51.606;-0.114;2023-05-21T22:49:25;5.68;;;2.78;;
56503;SDS011;48812;51.606;-0.114;2023-05-21T22:54:36;5.32;;;2.28;;
56503;SDS011;48812;51.606;-0.114;2023-05-21T22:57:08;6.15;;;2.47;;
56503;SDS011;48812;51.606;-0.114;2023-05-21T22:59:43;4.20;;;2.40;;
56503;SDS011;48812;51.606;-0.114;2023-05-21T23:02:15;4.75;;;2.35;;
56503;SDS011;48812;51.606;-0.114;2023-05-21T23:04:48;5.63;;;2.50;;
56503;SDS011;48812;51.606;-0.114;2023-05-21T23:07:22;6.85;;;2.60;;
56503;SDS011;48812;51.606;-0.114;2023-05-21T23:09:54;4.45;;;2.50;;
56503;SDS011;48812;51.606;-0.114;2023-05-21T23:12:26;3.67;;;2.43;;
56503;SDS011;48812;51.606;-0.114;2023-05-21T23:15:02;3.63;;;2.47;;
56503;SDS011;48812;51.606;-0.114;2023-05-21T23:17:36;3.72;;;2.42;;
56503;SDS011;48812;51.606;-0.114;2023-05-21T23:20:09;5.07;;;2.42;;
56503;SDS011;48812;51.606;-0.114;2023-05-21T23:22:42;3.45;;;2.45;;
56503;SDS011;48812;51.606;-0.114;2023-05-21T23:25:17;6.05;;;2.45;;
56503;SDS011;48812;51.606;-0.114;2023-05-21T23:27:49;4.78;;;2.30;;
56503;SDS011;48812;51.606;-0.114;2023-05-21T23:30:22;2.92;;;1.90;;
56503;SDS011;48812;51.606;-0.114;2023-05-21T23:32:54;4.57;;;2.22;;
56503;SDS011;48812;51.606;-0.114;2023-05-21T23:48:23;4.07;;;1.90;;
56503;SDS011;48812;51.606;-0.114;2023-05-21T23:50:56;3.58;;;2.17;;
56503;SDS011;48812;51.606;-0.114;2023-05-21T23:53:28;3.17;;;2.30;;
56503;SDS011;48812;51.606;-0.114;2023-05-21T23:56:02;3.42;;;2.20;;
